Time;durP1;ratioP1;P1;durP2;ratioP2;P2;SDS_P1;SDS_P2;PMS_P1;PMS_P2;Temp;Humidity;BMP_temperature;BMP_pressure;BME280_temperature;BME280_humidity;BME280_pressure;Samples;Min_cycle;Max_cycle;Signal;HPM_P1;HPM_P2
2021/07/25 00:01:22;;;;;;;35.70;28.47;;;18.20;99.90;;;;;;5058292;28;20478;-67
2021/07/25 00:03:50;;;;;;;31.97;28.63;;;18.00;99.90;;;;;;5059631;28;20455;-67
2021/07/25 00:06:18;;;;;;;41.60;28.23;;;17.90;99.90;;;;;;5062786;28;21312;-67
2021/07/25 00:08:46;;;;;;;47.50;29.23;;;17.90;99.90;;;;;;5067738;28;20466;-67
2021/07/25 00:11:17;;;;;;;36.27;30.40;;;17.90;99.90;;;;;;5061205;28;20477;-67
2021/07/25 00:13:47;;;;;;;45.40;28.13;;;17.70;99.90;;;;;;5063641;28;20877;-72
2021/07/25 00:16:15;;;;;;;40.87;28.90;;;17.60;99.90;;;;;;5066663;28;20465;-66
2021/07/25 00:18:41;;;;;;;48.93;30.70;;;17.50;99.90;;;;;;5065278;28;20601;-67
2021/07/25 00:21:08;;;;;;;38.57;29.97;;;17.40;99.90;;;;;;5068724;28;20458;-69
2021/07/25 00:23:37;;;;;;;38.27;28.83;;;17.40;99.90;;;;;;5063254;28;20536;-66
2021/07/25 00:26:06;;;;;;;41.00;28.33;;;17.40;99.90;;;;;;5060710;28;20462;-67
2021/07/25 00:28:35;;;;;;;40.03;29.67;;;17.50;99.90;;;;;;5065410;28;21030;-67
2021/07/25 00:31:08;;;;;;;35.80;28.00;;;17.40;99.90;;;;;;5064818;28;20468;-66
2021/07/25 00:33:36;;;;;;;35.73;27.00;;;17.30;99.90;;;;;;5066514;28;20457;-68
2021/07/25 00:36:05;;;;;;;33.67;28.20;;;17.30;99.90;;;;;;5065037;28;20468;-67
2021/07/25 00:38:33;;;;;;;39.20;27.40;;;17.30;99.90;;;;;;5065325;28;20466;-66
2021/07/25 00:41:08;;;;;;;35.27;27.20;;;17.30;99.90;;;;;;5064789;28;20478;-67
2021/07/25 00:43:37;;;;;;;36.80;28.17;;;17.20;99.90;;;;;;5062837;28;20478;-67
2021/07/25 00:46:05;;;;;;;35.23;27.70;;;17.10;99.90;;;;;;5063744;28;20464;-68
2021/07/25 00:48:33;;;;;;;49.20;28.83;;;17.00;99.90;;;;;;5066852;28;20986;-67
2021/07/25 00:51:00;;;;;;;31.63;27.90;;;16.90;99.90;;;;;;5062356;28;20600;-68
2021/07/25 00:53:28;;;;;;;31.83;28.57;;;16.80;99.90;;;;;;5066541;28;20498;-67
2021/07/25 00:55:56;;;;;;;39.10;27.50;;;16.80;99.90;;;;;;5062267;28;20463;-67
2021/07/25 00:58:24;;;;;;;51.77;29.83;;;16.80;99.90;;;;;;5058417;28;20551;-69
2021/07/25 01:00:52;;;;;;;31.30;27.90;;;16.70;99.90;;;;;;5066381;28;20459;-67
2021/07/25 01:03:29;;;;;;;36.77;28.30;;;16.80;99.90;;;;;;5066651;28;20467;-69
2021/07/25 01:06:06;;;;;;;37.13;25.60;;;16.70;99.90;;;;;;5065770;28;20465;-71
2021/07/25 01:08:41;;;;;;;33.20;27.93;;;16.60;99.90;;;;;;5060839;28;20458;-68
2021/07/25 01:11:10;;;;;;;32.60;29.10;;;16.60;99.90;;;;;;5064859;28;20460;-69
2021/07/25 01:13:42;;;;;;;33.80;29.30;;;16.50;99.90;;;;;;5061041;28;20502;-69
2021/07/25 01:16:12;;;;;;;46.67;29.00;;;16.40;99.90;;;;;;5063672;28;20876;-67
2021/07/25 01:18:46;;;;;;;32.70;29.20;;;16.40;99.90;;;;;;5060996;28;20513;-68
2021/07/25 01:21:15;;;;;;;33.23;28.80;;;16.30;99.90;;;;;;5063553;28;20927;-67
2021/07/25 01:23:42;;;;;;;32.80;28.73;;;16.20;99.90;;;;;;5062828;28;20471;-67
2021/07/25 01:26:11;;;;;;;35.47;28.13;;;16.20;99.90;;;;;;5066380;28;20459;-67
2021/07/25 01:28:43;;;;;;;32.43;27.73;;;16.10;99.90;;;;;;5061858;28;20827;-69
2021/07/25 01:31:15;;;;;;;37.87;28.53;;;16.10;99.90;;;;;;5064571;28;20490;-67
2021/07/25 01:33:45;;;;;;;35.00;29.87;;;16.20;99.90;;;;;;5064663;28;20495;-69
2021/07/25 01:36:13;;;;;;;42.13;29.90;;;16.10;99.90;;;;;;5066352;28;20569;-67
2021/07/25 01:38:41;;;;;;;41.83;29.37;;;16.10;99.90;;;;;;5064323;28;20459;-68
2021/07/25 01:41:10;;;;;;;39.57;28.10;;;16.00;99.90;;;;;;5063910;28;20577;-67
2021/07/25 01:43:38;;;;;;;40.43;30.23;;;16.00;99.90;;;;;;5061953;28;20933;-69
2021/07/25 01:46:06;;;;;;;32.43;28.90;;;15.90;99.90;;;;;;5064404;28;20473;-67
2021/07/25 01:48:33;;;;;;;44.17;29.37;;;15.90;99.90;;;;;;5065583;28;20461;-67
2021/07/25 01:51:00;;;;;;;46.47;27.77;;;15.90;99.90;;;;;;5064759;28;20890;-67
2021/07/25 01:53:28;;;;;;;87.20;27.63;;;15.80;99.90;;;;;;5062687;28;20988;-67
2021/07/25 01:55:55;;;;;;;366.27;31.90;;;15.80;99.90;;;;;;5063976;28;20992;-67
2021/07/25 01:58:22;;;;;;;51.30;27.27;;;15.70;99.90;;;;;;5060965;28;20459;-69
2021/07/25 02:00:49;;;;;;;155.40;29.50;;;15.60;99.90;;;;;;5062110;28;20462;-68
2021/07/25 02:03:21;;;;;;;43.47;27.57;;;15.60;99.90;;;;;;5061246;28;20542;-67
2021/07/25 02:05:48;;;;;;;48.43;27.60;;;15.50;99.90;;;;;;5062586;28;20495;-67
2021/07/25 02:08:16;;;;;;;102.77;30.73;;;15.50;99.90;;;;;;5065099;28;20470;-67
2021/07/25 02:10:49;;;;;;;132.60;28.33;;;15.50;99.90;;;;;;5060906;28;20499;-67
2021/07/25 02:13:17;;;;;;;35.03;26.67;;;15.50;99.90;;;;;;5063126;28;20821;-67
2021/07/25 02:15:44;;;;;;;34.10;27.77;;;15.50;99.90;;;;;;5061778;28;20469;-67
2021/07/25 02:18:11;;;;;;;30.80;28.07;;;15.50;99.90;;;;;;5053419;28;20966;-67
2021/07/25 02:20:41;;;;;;;33.00;29.40;;;15.50;99.90;;;;;;5060716;28;20533;-69
2021/07/25 02:23:07;;;;;;;32.23;28.33;;;15.60;99.90;;;;;;5061971;28;20466;-67
2021/07/25 02:25:34;;;;;;;31.27;28.17;;;15.60;99.90;;;;;;5054126;28;20456;-67
2021/07/25 02:28:02;;;;;;;29.63;26.50;;;15.60;99.90;;;;;;5056894;28;20799;-67
2021/07/25 02:30:29;;;;;;;27.37;25.13;;;15.60;99.90;;;;;;5063686;28;20466;-67
2021/07/25 02:32:56;;;;;;;26.53;24.10;;;15.60;99.90;;;;;;5063869;28;20497;-70
2021/07/25 02:35:24;;;;;;;31.20;27.87;;;15.50;99.90;;;;;;5062952;28;20455;-67
2021/07/25 02:37:52;;;;;;;31.70;28.73;;;15.50;99.90;;;;;;5059180;28;20467;-67
2021/07/25 02:40:19;;;;;;;39.00;31.40;;;15.50;99.90;;;;;;5057315;28;20460;-67
2021/07/25 02:42:47;;;;;;;30.87;27.97;;;15.50;99.90;;;;;;5061439;28;20985;-69
2021/07/25 02:45:15;;;;;;;36.53;30.20;;;15.50;99.90;;;;;;5060994;28;20474;-67
2021/07/25 02:47:43;;;;;;;44.63;32.17;;;15.50;99.90;;;;;;5063259;28;20469;-67
2021/07/25 02:50:11;;;;;;;41.67;29.60;;;15.40;99.90;;;;;;5061486;28;20471;-67
2021/07/25 02:52:38;;;;;;;32.87;29.30;;;15.40;99.90;;;;;;5064116;28;20483;-67
2021/07/25 02:55:06;;;;;;;33.40;29.70;;;15.40;99.90;;;;;;5062967;28;20467;-69
2021/07/25 02:57:34;;;;;;;35.40;31.90;;;15.40;99.90;;;;;;5057239;28;20467;-69
2021/07/25 03:00:01;;;;;;;31.47;28.33;;;15.40;99.90;;;;;;5054453;28;20463;-67
2021/07/25 03:02:29;;;;;;;36.50;32.27;;;15.40;99.90;;;;;;5057549;28;20843;-67
2021/07/25 03:04:56;;;;;;;34.23;30.17;;;15.40;99.90;;;;;;5064286;28;20456;-67
2021/07/25 03:07:23;;;;;;;36.40;32.43;;;15.40;99.90;;;;;;5063677;28;20490;-67
2021/07/25 03:09:51;;;;;;;39.40;33.13;;;15.50;99.90;;;;;;5059727;28;20470;-67
2021/07/25 03:12:17;;;;;;;37.53;31.23;;;15.50;99.90;;;;;;5060284;28;20997;-67
2021/07/25 03:14:44;;;;;;;38.83;32.63;;;15.60;99.90;;;;;;5055574;28;20958;-66
2021/07/25 03:17:11;;;;;;;33.43;29.83;;;15.60;99.90;;;;;;5062244;28;20474;-69
2021/07/25 03:19:39;;;;;;;43.63;33.07;;;15.70;99.90;;;;;;5058555;28;20470;-68
2021/07/25 03:22:09;;;;;;;47.70;33.20;;;15.70;99.90;;;;;;5061783;28;20657;-67
2021/07/25 03:24:36;;;;;;;38.03;32.70;;;15.80;99.90;;;;;;5055831;28;20465;-67
2021/07/25 03:27:03;;;;;;;53.80;32.70;;;15.90;99.90;;;;;;5057320;28;20494;-67
2021/07/25 03:29:30;;;;;;;38.30;31.57;;;15.90;99.90;;;;;;5058412;28;20463;-68
2021/07/25 03:31:56;;;;;;;31.67;28.67;;;15.90;99.90;;;;;;5059483;28;20459;-69
2021/07/25 03:34:23;;;;;;;32.70;29.17;;;15.80;99.90;;;;;;5066288;28;20499;-69
2021/07/25 03:36:52;;;;;;;34.07;30.80;;;15.70;99.90;;;;;;5062268;28;20804;-69
2021/07/25 03:39:21;;;;;;;35.17;30.23;;;15.70;99.90;;;;;;5060941;28;20457;-67
2021/07/25 03:41:48;;;;;;;29.13;26.17;;;15.70;99.90;;;;;;5059201;28;20986;-67
2021/07/25 03:44:15;;;;;;;29.63;26.73;;;15.70;99.90;;;;;;5066041;28;20840;-67
2021/07/25 03:46:43;;;;;;;29.93;26.73;;;15.70;99.90;;;;;;5065137;28;20463;-69
2021/07/25 03:49:11;;;;;;;30.17;25.77;;;15.70;99.90;;;;;;5063977;28;20987;-69
2021/07/25 03:51:39;;;;;;;28.73;25.80;;;15.80;99.90;;;;;;5058266;28;20926;-67
2021/07/25 03:54:07;;;;;;;32.00;28.57;;;15.80;99.90;;;;;;5059084;28;20614;-67
2021/07/25 03:56:35;;;;;;;29.47;26.50;;;15.70;99.90;;;;;;5066154;28;20463;-67
2021/07/25 03:59:02;;;;;;;29.47;26.37;;;15.60;99.90;;;;;;5062727;28;20459;-66
2021/07/25 04:01:30;;;;;;;27.70;25.10;;;15.50;99.90;;;;;;5065428;28;20467;-67
2021/07/25 04:03:57;;;;;;;30.53;27.57;;;15.50;99.90;;;;;;5065686;28;20567;-69
2021/07/25 04:06:24;;;;;;;30.63;25.47;;;15.50;99.90;;;;;;5060219;28;20462;-67
2021/07/25 04:08:52;;;;;;;29.13;26.47;;;15.40;99.90;;;;;;5060246;28;20498;-67
2021/07/25 04:11:21;;;;;;;26.70;23.97;;;15.40;99.90;;;;;;5063505;28;20473;-67
2021/07/25 04:13:48;;;;;;;28.17;25.50;;;15.50;99.90;;;;;;5060390;28;20489;-69
2021/07/25 04:16:15;;;;;;;26.80;24.40;;;15.50;99.90;;;;;;5068466;28;20467;-68
2021/07/25 04:18:42;;;;;;;29.77;26.07;;;15.40;99.90;;;;;;5061301;28;20459;-67
2021/07/25 04:21:11;;;;;;;26.60;23.97;;;15.40;99.90;;;;;;5063086;28;20856;-67
2021/07/25 04:23:40;;;;;;;25.87;23.60;;;15.40;99.90;;;;;;5056816;28;20558;-67
2021/07/25 04:26:07;;;;;;;28.10;25.10;;;15.50;99.90;;;;;;5068177;28;20467;-67
2021/07/25 04:28:36;;;;;;;27.93;25.23;;;15.40;99.90;;;;;;5067184;28;20495;-69
2021/07/25 04:31:05;;;;;;;28.20;25.60;;;15.40;99.90;;;;;;5065686;28;20463;-68
2021/07/25 04:33:33;;;;;;;30.73;25.90;;;15.40;99.90;;;;;;5063340;28;20491;-67
2021/07/25 04:36:00;;;;;;;25.67;23.40;;;15.50;99.90;;;;;;5063002;28;20459;-68
2021/07/25 04:38:29;;;;;;;26.83;24.00;;;15.50;99.90;;;;;;5065016;28;20490;-69
2021/07/25 04:41:01;;;;;;;25.50;23.27;;;15.60;99.90;;;;;;5058016;28;20479;-67
2021/07/25 04:43:31;;;;;;;26.30;23.60;;;15.60;99.90;;;;;;5062871;28;20803;-67
2021/07/25 04:46:05;;;;;;;25.37;22.90;;;15.60;99.90;;;;;;5063240;28;20516;-67
2021/07/25 04:48:39;;;;;;;24.10;21.83;;;15.70;99.90;;;;;;5059968;28;20463;-66
2021/07/25 04:51:07;;;;;;;25.40;23.10;;;15.70;99.90;;;;;;5058728;28;20456;-69
2021/07/25 04:53:39;;;;;;;24.30;21.70;;;15.70;99.90;;;;;;5066777;28;20483;-67
2021/07/25 04:56:10;;;;;;;23.60;21.30;;;15.80;99.90;;;;;;5060218;28;20470;-67
2021/07/25 04:58:41;;;;;;;24.57;21.97;;;15.90;99.90;;;;;;5061978;28;20554;-67
2021/07/25 05:01:13;;;;;;;24.40;21.97;;;16.00;99.90;;;;;;5061182;28;20459;-67
2021/07/25 05:03:41;;;;;;;22.67;20.47;;;16.00;99.90;;;;;;5064109;28;20470;-67
2021/07/25 05:06:11;;;;;;;23.13;20.83;;;16.10;99.90;;;;;;5057347;28;20479;-67
2021/07/25 05:08:39;;;;;;;23.90;20.37;;;16.20;99.90;;;;;;5060394;28;20514;-67
2021/07/25 05:11:13;;;;;;;23.27;20.73;;;16.30;99.90;;;;;;5060992;28;20462;-68
2021/07/25 05:13:45;;;;;;;22.53;20.43;;;16.30;99.90;;;;;;5056963;28;20490;-68
2021/07/25 05:16:27;;;;;;;21.73;19.67;;;16.40;99.90;;;;;;5060838;28;20455;-68
2021/07/25 05:19:06;;;;;;;22.33;20.33;;;16.40;99.90;;;;;;5065659;28;20463;-67
2021/07/25 05:21:43;;;;;;;22.50;20.10;;;16.50;99.90;;;;;;5066341;28;20460;-67
2021/07/25 05:24:10;;;;;;;21.53;19.57;;;16.50;99.90;;;;;;5059286;28;20470;-66
2021/07/25 05:26:38;;;;;;;22.60;20.50;;;16.50;99.90;;;;;;5058940;28;20742;-67
2021/07/25 05:29:06;;;;;;;24.00;21.87;;;16.60;99.90;;;;;;5059192;28;20466;-67
2021/07/25 05:31:35;;;;;;;24.37;21.20;;;16.70;99.90;;;;;;5060393;28;20478;-67
2021/07/25 05:34:03;;;;;;;26.47;21.60;;;16.70;99.90;;;;;;5057451;28;20502;-67
2021/07/25 05:36:31;;;;;;;25.30;21.33;;;16.80;99.90;;;;;;5067971;28;20470;-67
2021/07/25 05:38:59;;;;;;;22.90;20.60;;;16.90;99.90;;;;;;5063603;28;20470;-67
2021/07/25 05:41:25;;;;;;;22.23;19.47;;;17.00;99.90;;;;;;5059843;28;20493;-67
2021/07/25 05:43:53;;;;;;;20.80;18.80;;;17.10;99.90;;;;;;5061075;28;20561;-67
2021/07/25 05:46:20;;;;;;;21.30;19.10;;;17.10;99.90;;;;;;5063252;28;20470;-66
2021/07/25 05:48:48;;;;;;;20.27;18.43;;;17.20;99.90;;;;;;5065962;28;20557;-67
2021/07/25 05:51:16;;;;;;;23.83;21.43;;;17.20;99.90;;;;;;5064690;28;20895;-66
2021/07/25 05:53:43;;;;;;;26.80;21.50;;;17.30;99.90;;;;;;5057803;28;20492;-66
2021/07/25 05:56:11;;;;;;;25.83;21.80;;;17.30;99.90;;;;;;5060472;28;20473;-67
2021/07/25 05:58:38;;;;;;;37.50;22.60;;;17.40;99.90;;;;;;5059346;28;20820;-68
2021/07/25 06:01:05;;;;;;;26.20;21.40;;;17.50;99.90;;;;;;5059269;28;20501;-67
2021/07/25 06:03:31;;;;;;;25.73;19.80;;;17.60;99.90;;;;;;5064027;28;20474;-69
2021/07/25 06:06:01;;;;;;;32.73;21.43;;;17.60;99.90;;;;;;5057713;28;20474;-66
2021/07/25 06:08:28;;;;;;;23.30;20.70;;;17.70;99.90;;;;;;5055740;28;20524;-68
2021/07/25 06:10:56;;;;;;;28.03;20.30;;;17.80;99.90;;;;;;5058259;28;20547;-68
2021/07/25 06:13:22;;;;;;;21.87;18.30;;;17.90;99.90;;;;;;5065243;28;21080;-68
2021/07/25 06:15:50;;;;;;;21.97;19.43;;;18.00;99.90;;;;;;5062663;28;20452;-69
2021/07/25 06:18:17;;;;;;;19.20;17.30;;;18.10;99.90;;;;;;5069139;28;20462;-67
2021/07/25 06:20:45;;;;;;;20.87;18.60;;;18.20;99.90;;;;;;5057787;28;20482;-67
2021/07/25 06:23:16;;;;;;;22.03;19.03;;;18.30;99.90;;;;;;5061440;28;20829;-67
2021/07/25 06:25:43;;;;;;;25.10;19.87;;;18.40;99.90;;;;;;5060629;28;20475;-69
2021/07/25 06:28:10;;;;;;;31.80;20.20;;;18.50;99.90;;;;;;5055718;28;20472;-70
2021/07/25 06:30:37;;;;;;;22.40;18.30;;;18.60;99.90;;;;;;5063051;28;20459;-67
2021/07/25 06:33:05;;;;;;;19.90;18.07;;;18.70;99.90;;;;;;5060596;28;20485;-67
2021/07/25 06:35:33;;;;;;;19.30;17.90;;;18.90;99.90;;;;;;5062868;28;20474;-68
2021/07/25 06:38:01;;;;;;;19.50;17.73;;;19.10;99.90;;;;;;5060319;28;20459;-67
2021/07/25 06:40:32;;;;;;;19.87;18.17;;;19.20;99.90;;;;;;5060442;28;20463;-70
2021/07/25 06:43:00;;;;;;;18.60;17.30;;;19.20;99.90;;;;;;5057019;28;20481;-69
2021/07/25 06:45:28;;;;;;;18.63;17.13;;;19.30;99.90;;;;;;5060507;28;20462;-69
2021/07/25 06:47:55;;;;;;;19.70;18.13;;;19.30;99.90;;;;;;5063496;28;20509;-67
2021/07/25 06:50:24;;;;;;;18.53;16.93;;;19.40;99.90;;;;;;5059413;28;20462;-67
2021/07/25 06:52:53;;;;;;;18.83;16.93;;;19.40;99.90;;;;;;5060788;28;21042;-67
2021/07/25 06:55:22;;;;;;;17.23;16.00;;;19.50;99.90;;;;;;5060620;28;20511;-67
2021/07/25 06:57:51;;;;;;;18.53;17.07;;;19.60;99.90;;;;;;5064059;28;20459;-67
2021/07/25 07:00:18;;;;;;;17.93;16.37;;;19.80;99.90;;;;;;5060596;28;20566;-67
2021/07/25 07:02:51;;;;;;;17.47;16.13;;;19.90;99.90;;;;;;5056387;28;20460;-67
2021/07/25 07:05:20;;;;;;;17.20;16.10;;;20.00;99.90;;;;;;5056122;28;20471;-67
2021/07/25 07:07:48;;;;;;;18.17;16.70;;;20.10;99.90;;;;;;5054893;28;20551;-67
2021/07/25 07:10:16;;;;;;;19.40;17.80;;;20.20;99.90;;;;;;5052894;28;20463;-66
2021/07/25 07:12:43;;;;;;;16.30;15.20;;;20.40;99.90;;;;;;5059619;28;20462;-68
2021/07/25 07:15:12;;;;;;;16.73;15.50;;;20.50;99.90;;;;;;5061444;28;20491;-67
2021/07/25 07:17:39;;;;;;;16.57;15.13;;;20.60;99.90;;;;;;5064743;28;20471;-67
2021/07/25 07:20:09;;;;;;;17.70;16.37;;;20.70;99.90;;;;;;5061684;28;20455;-66
2021/07/25 07:22:37;;;;;;;17.23;16.00;;;20.80;99.90;;;;;;5061264;28;20474;-68
2021/07/25 07:25:06;;;;;;;18.13;16.27;;;20.90;99.90;;;;;;5057647;28;20874;-67
2021/07/25 07:27:34;;;;;;;20.30;16.40;;;21.00;99.90;;;;;;5058409;28;20795;-67
2021/07/25 07:30:02;;;;;;;17.20;15.80;;;21.10;99.90;;;;;;5065676;28;20462;-67
2021/07/25 07:32:30;;;;;;;17.17;15.97;;;21.00;99.90;;;;;;5060407;28;20617;-67
2021/07/25 07:34:57;;;;;;;16.00;14.73;;;21.10;99.90;;;;;;5060179;28;20487;-68
2021/07/25 07:37:23;;;;;;;16.43;15.20;;;21.20;99.90;;;;;;5064800;28;20471;-69
2021/07/25 07:39:50;;;;;;;16.37;15.37;;;21.30;99.90;;;;;;5060322;28;21267;-67
2021/07/25 07:42:17;;;;;;;17.50;16.30;;;21.40;99.90;;;;;;5060409;28;20495;-67
2021/07/25 07:44:44;;;;;;;16.57;15.17;;;21.50;99.90;;;;;;5060211;28;21064;-67
2021/07/25 07:47:11;;;;;;;16.40;15.40;;;21.60;99.90;;;;;;5059238;28;20509;-68
2021/07/25 07:49:40;;;;;;;17.53;16.23;;;21.70;99.90;;;;;;5054555;28;20456;-67
2021/07/25 07:52:07;;;;;;;15.97;15.07;;;21.70;99.90;;;;;;5061460;28;20468;-67
2021/07/25 07:54:35;;;;;;;15.57;14.67;;;21.80;99.90;;;;;;5056258;28;20581;-67
2021/07/25 07:57:03;;;;;;;16.23;14.93;;;22.00;99.90;;;;;;5059731;28;20498;-68
2021/07/25 07:59:30;;;;;;;16.43;15.17;;;22.00;99.90;;;;;;5054151;28;20462;-67
2021/07/25 08:01:59;;;;;;;16.67;15.50;;;22.00;99.90;;;;;;5062746;28;20459;-71
2021/07/25 08:04:26;;;;;;;16.23;14.80;;;21.80;99.90;;;;;;5061679;28;20560;-70
2021/07/25 08:06:54;;;;;;;15.93;14.83;;;22.10;99.90;;;;;;5061925;28;20460;-68
2021/07/25 08:09:21;;;;;;;16.13;15.13;;;22.20;99.90;;;;;;5065394;28;20451;-67
2021/07/25 08:11:47;;;;;;;17.07;15.37;;;22.30;99.90;;;;;;5060267;28;20546;-67
2021/07/25 08:14:15;;;;;;;15.37;14.37;;;22.50;99.90;;;;;;5059935;28;20479;-69
2021/07/25 08:16:42;;;;;;;16.30;15.30;;;22.70;99.90;;;;;;5055943;28;20478;-67
2021/07/25 08:19:11;;;;;;;15.70;14.50;;;22.60;99.90;;;;;;5056281;28;20825;-67
2021/07/25 08:21:39;;;;;;;15.43;14.23;;;22.80;99.90;;;;;;5061915;28;20458;-70
2021/07/25 08:24:08;;;;;;;15.27;14.47;;;23.00;99.90;;;;;;5058377;28;20483;-69
2021/07/25 08:26:36;;;;;;;15.20;14.13;;;23.30;99.90;;;;;;5063785;28;20462;-67
2021/07/25 08:29:03;;;;;;;14.07;13.17;;;23.70;99.90;;;;;;5064932;28;20462;-67
2021/07/25 08:31:30;;;;;;;14.47;13.33;;;24.50;99.90;;;;;;5061175;28;20459;-67
2021/07/25 08:33:57;;;;;;;13.10;12.40;;;25.40;99.90;;;;;;5062171;28;20992;-70
2021/07/25 08:36:24;;;;;;;13.80;12.80;;;26.10;99.90;;;;;;5062288;28;20847;-70
2021/07/25 08:38:51;;;;;;;13.40;12.40;;;26.10;99.90;;;;;;5063744;28;20474;-67
2021/07/25 08:41:35;;;;;;;14.13;13.07;;;26.70;99.90;;;;;;5062563;28;20482;-69
2021/07/25 08:44:16;;;;;;;14.70;13.73;;;27.20;99.90;;;;;;5059428;28;20467;-67
2021/07/25 08:46:45;;;;;;;14.30;13.50;;;27.50;99.90;;;;;;5063605;28;20542;-67
2021/07/25 08:49:18;;;;;;;15.97;15.07;;;27.50;99.90;;;;;;5063963;28;21586;-67
2021/07/25 08:52:00;;;;;;;15.30;14.30;;;27.50;99.90;;;;;;5055365;28;21165;-67
2021/07/25 08:54:29;;;;;;;14.27;13.47;;;27.30;99.90;;;;;;5062896;28;20484;-68
2021/07/25 08:57:00;;;;;;;15.30;14.23;;;26.80;99.90;;;;;;5059742;28;20474;-69
2021/07/25 08:59:30;;;;;;;14.33;13.53;;;26.40;99.90;;;;;;5061070;28;20563;-68
2021/07/25 09:02:00;;;;;;;14.00;13.20;;;26.90;99.90;;;;;;5060141;28;20495;-67
2021/07/25 09:04:28;;;;;;;14.67;13.87;;;27.70;99.90;;;;;;5061643;28;20462;-67
2021/07/25 09:06:56;;;;;;;14.57;13.57;;;28.40;99.90;;;;;;5060692;28;20459;-67
2021/07/25 09:09:24;;;;;;;14.20;13.27;;;28.40;99.90;;;;;;5062884;28;20464;-68
2021/07/25 09:11:51;;;;;;;14.97;14.07;;;28.40;99.90;;;;;;5062175;28;20468;-67
2021/07/25 09:14:19;;;;;;;15.50;14.50;;;27.90;99.90;;;;;;5062942;28;20493;-67
2021/07/25 09:16:47;;;;;;;14.87;14.07;;;28.80;99.90;;;;;;5057963;28;20462;-68
2021/07/25 09:19:14;;;;;;;14.90;14.13;;;27.80;99.90;;;;;;5061921;28;20961;-69
2021/07/25 09:21:43;;;;;;;15.23;14.30;;;27.70;99.90;;;;;;5063784;28;21129;-70
2021/07/25 09:24:23;;;;;;;15.87;14.60;;;28.20;99.90;;;;;;5061284;28;20520;-70
2021/07/25 09:26:56;;;;;;;15.23;14.40;;;28.20;99.90;;;;;;5058197;28;20973;-69
2021/07/25 09:29:27;;;;;;;15.50;14.57;;;28.40;99.90;;;;;;5073202;28;20466;-68
2021/07/25 09:32:11;;;;;;;16.57;15.67;;;29.00;99.90;;;;;;5056546;28;20494;-72
2021/07/25 09:34:39;;;;;;;16.33;15.33;;;29.50;99.90;;;;;;5059966;28;20846;-69
2021/07/25 09:37:16;;;;;;;16.60;15.40;;;29.40;99.90;;;;;;5057053;28;20444;-69
2021/07/25 09:39:44;;;;;;;15.93;14.67;;;30.30;99.90;;;;;;5062922;28;20554;-69
2021/07/25 09:42:12;;;;;;;16.20;15.17;;;30.20;99.90;;;;;;5061825;28;21036;-69
2021/07/25 09:44:49;;;;;;;17.27;16.27;;;30.80;99.90;;;;;;5063296;28;20842;-69
2021/07/25 09:47:30;;;;;;;17.53;16.23;;;31.00;99.90;;;;;;5064189;28;20459;-70
2021/07/25 09:49:58;;;;;;;15.93;15.23;;;30.40;99.90;;;;;;5060838;28;20458;-69
2021/07/25 09:52:29;;;;;;;15.80;15.00;;;29.30;99.90;;;;;;5060240;28;20463;-68
2021/07/25 09:54:57;;;;;;;16.93;15.87;;;28.50;99.90;;;;;;5062076;28;20487;-69
2021/07/25 09:57:26;;;;;;;15.53;14.50;;;27.60;99.90;;;;;;5062075;28;20655;-71
2021/07/25 09:59:55;;;;;;;16.27;15.27;;;27.20;99.90;;;;;;5059145;28;20454;-69
2021/07/25 10:02:33;;;;;;;16.20;15.00;;;27.50;99.90;;;;;;5062151;28;20942;-71
2021/07/25 10:05:11;;;;;;;15.83;14.70;;;27.60;99.90;;;;;;5059693;28;20996;-70
2021/07/25 10:07:39;;;;;;;15.50;14.67;;;27.60;99.90;;;;;;5056216;28;20463;-68
2021/07/25 10:10:08;;;;;;;17.10;16.10;;;27.50;99.90;;;;;;5061234;28;20455;-69
2021/07/25 10:12:37;;;;;;;16.10;15.30;;;27.30;99.90;;;;;;5058953;28;20467;-70
2021/07/25 10:15:07;;;;;;;16.30;15.40;;;27.30;99.90;;;;;;5059739;28;20690;-69
2021/07/25 10:17:36;;;;;;;16.90;15.80;;;26.90;99.90;;;;;;5061194;28;20521;-68
2021/07/25 10:20:04;;;;;;;15.80;15.03;;;26.60;99.90;;;;;;5058350;28;20467;-69
2021/07/25 10:22:33;;;;;;;16.33;15.43;;;26.50;99.90;;;;;;5062293;28;20470;-70
2021/07/25 10:25:01;;;;;;;16.83;15.83;;;26.70;99.90;;;;;;5054930;28;20455;-70
2021/07/25 10:27:29;;;;;;;16.00;14.90;;;27.00;99.90;;;;;;5053468;28;20456;-68
2021/07/25 10:30:00;;;;;;;17.30;16.10;;;27.00;99.90;;;;;;5070359;28;20463;-68
2021/07/25 10:32:30;;;;;;;16.00;15.10;;;26.90;99.90;;;;;;5059600;28;20459;-70
2021/07/25 10:35:02;;;;;;;15.90;15.10;;;27.10;99.90;;;;;;5057409;28;20474;-68
2021/07/25 10:37:29;;;;;;;16.47;15.43;;;26.90;99.90;;;;;;5055283;28;20469;-68
2021/07/25 10:39:58;;;;;;;14.70;13.87;;;27.20;99.90;;;;;;5055120;28;20462;-68
2021/07/25 10:42:26;;;;;;;15.23;14.17;;;28.80;99.90;;;;;;5053596;28;20582;-70
2021/07/25 10:44:53;;;;;;;16.53;15.37;;;30.10;99.90;;;;;;5058518;28;20802;-68
2021/07/25 10:47:31;;;;;;;17.57;15.83;;;30.80;99.90;;;;;;5059591;28;20470;-68
2021/07/25 10:49:59;;;;;;;16.10;15.00;;;31.40;99.90;;;;;;5061465;28;20455;-71
2021/07/25 10:52:27;;;;;;;16.73;15.83;;;31.80;99.90;;;;;;5057166;28;20452;-67
2021/07/25 10:54:54;;;;;;;17.40;16.30;;;31.90;99.90;;;;;;5057037;28;20479;-67
2021/07/25 10:57:21;;;;;;;17.20;15.83;;;30.60;99.90;;;;;;5057773;28;20468;-71
2021/07/25 10:59:50;;;;;;;17.90;16.07;;;29.90;99.90;;;;;;5059167;28;20451;-70
2021/07/25 11:02:49;;;;;;;16.77;15.77;;;29.80;99.90;;;;;;5061456;28;20965;-67
2021/07/25 11:05:18;;;;;;;15.93;15.03;;;29.90;99.90;;;;;;5048908;28;21000;-71
2021/07/25 11:07:57;;;;;;;16.00;15.00;;;29.40;99.90;;;;;;5065810;28;20496;-69
2021/07/25 11:10:32;;;;;;;15.53;14.00;;;28.40;99.90;;;;;;5061251;28;20529;-67
2021/07/25 11:13:18;;;;;;;15.57;14.70;;;28.30;99.90;;;;;;5056553;28;20455;-70
2021/07/25 11:15:45;;;;;;;16.17;14.93;;;28.20;99.90;;;;;;5056608;28;20497;-67
2021/07/25 11:18:27;;;;;;;14.43;13.73;;;28.00;99.90;;;;;;5063319;28;20463;-67
2021/07/25 11:21:00;;;;;;;14.90;14.20;;;29.00;99.90;;;;;;5060226;28;20962;-68
2021/07/25 11:23:38;;;;;;;14.63;13.90;;;30.30;99.90;;;;;;5061152;28;20456;-67
2021/07/25 11:26:43;;;;;;;16.50;15.20;;;31.60;99.90;;;;;;5061992;28;20455;-67
2021/07/25 11:29:12;;;;;;;15.83;14.90;;;33.00;97.30;;;;;;5053501;28;20864;-67
2021/07/25 11:31:42;;;;;;;15.47;14.60;;;32.60;97.00;;;;;;5065436;28;20930;-68
2021/07/25 11:34:11;;;;;;;14.97;14.17;;;33.30;97.00;;;;;;5062631;28;20470;-69
2021/07/25 11:36:40;;;;;;;15.97;15.10;;;34.40;96.10;;;;;;5057793;28;20491;-67
2021/07/25 11:39:08;;;;;;;14.60;13.90;;;34.30;93.10;;;;;;5062557;28;20471;-67
2021/07/25 11:41:38;;;;;;;14.93;14.20;;;34.20;91.50;;;;;;5062610;28;20486;-67
2021/07/25 11:44:06;;;;;;;15.37;14.63;;;34.70;91.30;;;;;;5063179;28;20458;-68
2021/07/25 11:46:36;;;;;;;15.30;14.60;;;35.00;91.60;;;;;;5061371;28;20463;-67
2021/07/25 11:49:11;;;;;;;15.70;14.80;;;34.50;89.30;;;;;;5065465;28;20462;-67
2021/07/25 11:51:44;;;;;;;16.00;14.90;;;34.20;89.70;;;;;;5062811;28;20467;-67
2021/07/25 11:54:12;;;;;;;13.90;13.10;;;33.30;89.90;;;;;;5062398;28;20540;-68
2021/07/25 11:57:02;;;;;;;14.17;13.53;;;32.00;91.40;;;;;;5054348;28;20483;-67
2021/07/25 11:59:31;;;;;;;14.80;14.00;;;31.80;90.70;;;;;;5058415;28;20550;-67
2021/07/25 12:01:58;;;;;;;14.00;13.20;;;31.30;91.80;;;;;;5065486;28;20467;-67
2021/07/25 12:04:27;;;;;;;14.77;13.77;;;30.30;92.90;;;;;;5064720;28;20466;-67
2021/07/25 12:07:14;;;;;;;14.40;13.60;;;29.80;94.10;;;;;;5060712;28;20466;-67
2021/07/25 12:09:44;;;;;;;14.40;13.47;;;29.30;94.70;;;;;;5063598;28;20734;-67
2021/07/25 12:12:14;;;;;;;14.93;13.90;;;29.10;96.60;;;;;;5055648;28;20455;-68
2021/07/25 12:14:43;;;;;;;20.30;18.80;;;28.50;99.90;;;;;;5064665;28;20483;-68
2021/07/25 12:17:11;;;;;;;22.33;20.67;;;27.50;99.90;;;;;;5063119;28;20498;-70
2021/07/25 12:19:42;;;;;;;20.60;19.03;;;26.60;99.90;;;;;;5062586;28;20471;-67
2021/07/25 12:22:19;;;;;;;19.93;18.63;;;25.50;99.90;;;;;;5062540;28;20456;-68
2021/07/25 12:24:48;;;;;;;16.37;15.50;;;25.00;99.90;;;;;;5065196;28;21051;-67
2021/07/25 12:27:30;;;;;;;16.30;15.17;;;24.80;99.90;;;;;;5064688;28;20993;-70
2021/07/25 12:30:14;;;;;;;13.80;13.00;;;24.90;99.90;;;;;;5060778;28;20459;-68
2021/07/25 12:32:41;;;;;;;13.57;12.67;;;25.70;99.90;;;;;;5070645;28;20463;-69
2021/07/25 12:35:24;;;;;;;13.90;13.17;;;27.30;99.90;;;;;;5063864;28;20554;-69
2021/07/25 12:37:59;;;;;;;14.23;13.53;;;29.30;99.90;;;;;;5061712;28;20818;-70